Time;durP1;ratioP1;P1;durP2;ratioP2;P2;SDS_P1;SDS_P2;PMS_P1;PMS_P2;Temp;Humidity;BMP_temperature;BMP_pressure;BME280_temperature;BME280_humidity;BME280_pressure;Samples;Min_cycle;Max_cycle;Signal;HPM_P1;HPM_P2
2022/08/26 00:02:04;;;;;;;6.15;3.13;;;;;;;-148.56;100.00;61375.16;5024220;28;20122;-28
2022/08/26 00:05:27;;;;;;;3.92;2.90;;;;;;;-148.56;100.00;61375.16;5025451;28;20033;-27
2022/08/26 00:08:51;;;;;;;6.63;3.30;;;;;;;-148.56;100.00;61375.16;5025932;28;20025;-27
2022/08/26 00:12:15;;;;;;;6.05;3.20;;;;;;;-148.56;100.00;61375.16;5020934;28;20048;-28
2022/08/26 00:15:39;;;;;;;5.15;3.30;;;;;;;-148.56;100.00;61375.16;5022968;28;20052;-27
2022/08/26 00:19:03;;;;;;;10.73;3.50;;;;;;;-148.56;100.00;61375.16;5023312;28;20043;-28
2022/08/26 00:22:27;;;;;;;5.63;3.10;;;;;;;-148.56;100.00;61375.16;5024287;28;20033;-27
2022/08/26 00:25:51;;;;;;;4.68;3.13;;;;;;;-148.56;100.00;61375.16;5029651;28;20156;-30
2022/08/26 00:29:15;;;;;;;3.22;2.90;;;;;;;-148.56;100.00;61375.16;5027919;28;20029;-27
2022/08/26 00:32:39;;;;;;;3.25;2.95;;;;;;;-148.56;100.00;61375.16;5022929;28;20043;-27
2022/08/26 00:36:04;;;;;;;3.80;3.40;;;;;;;-148.56;100.00;61375.16;5023638;28;20032;-27
2022/08/26 00:39:28;;;;;;;4.00;3.20;;;;;;;-148.56;100.00;61375.16;5021922;28;20060;-27
2022/08/26 00:42:52;;;;;;;4.93;3.33;;;;;;;-148.56;100.00;61375.16;5023528;28;20021;-27
2022/08/26 00:46:18;;;;;;;4.03;2.85;;;;;;;-148.56;100.00;61375.16;5025213;28;20147;-27
2022/08/26 00:49:43;;;;;;;5.07;3.53;;;;;;;-148.56;100.00;61375.16;5022976;28;20048;-27
2022/08/26 00:53:20;;;;;;;5.93;3.35;;;;;;;-148.56;100.00;61375.16;5015179;28;20025;-27
2022/08/26 00:57:12;;;;;;;3.97;3.10;;;;;;;-148.56;100.00;61375.16;5027321;28;20033;-26
2022/08/26 01:00:36;;;;;;;4.68;3.35;;;;;;;-148.56;100.00;61375.16;5027337;28;20672;-27
2022/08/26 01:04:00;;;;;;;3.75;3.28;;;;;;;-148.56;100.00;61375.16;5026804;28;20057;-26
2022/08/26 01:07:25;;;;;;;5.45;3.15;;;;;;;-148.56;100.00;61375.16;5015892;28;20630;-27
2022/08/26 01:10:49;;;;;;;6.38;3.72;;;;;;;-148.56;100.00;61375.16;5024248;28;20060;-27
2022/08/26 01:14:12;;;;;;;5.25;3.15;;;;;;;-148.56;100.00;61375.16;5026236;28;20029;-27
2022/08/26 01:17:37;;;;;;;4.30;3.45;;;;;;;-148.56;100.00;61375.16;5030524;28;20083;-26
2022/08/26 01:21:06;;;;;;;3.72;3.03;;;;;;;-148.56;100.00;61375.16;5028905;28;20025;-26
2022/08/26 01:24:31;;;;;;;6.32;3.10;;;;;;;-148.56;100.00;61375.16;5025355;28;20900;-27
2022/08/26 01:27:56;;;;;;;5.50;3.38;;;;;;;-148.56;100.00;61375.16;5026793;28;20039;-27
2022/08/26 01:31:23;;;;;;;3.42;3.13;;;;;;;-148.56;100.00;61375.16;5026764;28;20044;-28
2022/08/26 01:35:06;;;;;;;5.18;3.20;;;;;;;-148.56;100.00;61375.16;5030633;28;20444;-26
2022/08/26 01:38:31;;;;;;;4.18;3.08;;;;;;;-148.56;100.00;61375.16;5025878;28;20021;-27
2022/08/26 01:41:55;;;;;;;3.90;3.10;;;;;;;-148.56;100.00;61375.16;5030491;28;20025;-27
2022/08/26 01:45:21;;;;;;;3.47;3.17;;;;;;;-148.56;100.00;61375.16;5025893;28;20063;-26
2022/08/26 01:48:45;;;;;;;3.42;3.13;;;;;;;-148.56;100.00;61375.16;5028545;28;20060;-27
2022/08/26 01:52:10;;;;;;;4.20;3.10;;;;;;;-148.56;100.00;61375.16;5028513;28;20119;-27
2022/08/26 01:55:35;;;;;;;4.57;3.42;;;;;;;-148.56;100.00;61375.16;5025848;28;20025;-27
2022/08/26 01:59:02;;;;;;;3.67;3.33;;;;;;;-148.56;100.00;61375.16;5028347;28;20041;-27
2022/08/26 02:02:25;;;;;;;4.97;3.05;;;;;;;-148.56;100.00;61375.16;5028902;28;20164;-27
2022/08/26 02:05:52;;;;;;;4.45;3.28;;;;;;;-148.56;100.00;61375.16;5025056;28;20623;-27
2022/08/26 02:09:17;;;;;;;5.60;3.17;;;;;;;-148.56;100.00;61375.16;5026573;28;20045;-27
2022/08/26 02:12:40;;;;;;;4.78;3.20;;;;;;;-148.56;100.00;61375.16;5026842;28;20045;-27
2022/08/26 02:16:05;;;;;;;4.43;3.17;;;;;;;-148.56;100.00;61375.16;5027017;28;20033;-27
2022/08/26 02:19:31;;;;;;;7.78;3.40;;;;;;;-148.56;100.00;61375.16;5025606;28;20039;-27
2022/08/26 02:22:55;;;;;;;4.20;3.22;;;;;;;-148.56;100.00;61375.16;5028942;28;20072;-27
2022/08/26 02:26:27;;;;;;;3.45;3.03;;;;;;;-148.56;100.00;61375.16;5030142;28;20613;-26
2022/08/26 02:29:57;;;;;;;5.60;2.95;;;;;;;-148.56;100.00;61375.16;5028857;28;20507;-27
2022/08/26 02:33:21;;;;;;;4.43;2.90;;;;;;;-148.56;100.00;61375.16;5027965;28;20037;-27
2022/08/26 02:36:45;;;;;;;6.00;3.45;;;;;;;-148.56;100.00;61375.16;5029104;28;20025;-27
2022/08/26 02:40:09;;;;;;;3.72;3.17;;;;;;;-148.56;100.00;61375.16;5029931;28;20028;-26
2022/08/26 02:43:33;;;;;;;4.57;3.40;;;;;;;-148.56;100.00;61375.16;5027745;28;20033;-27
2022/08/26 02:46:57;;;;;;;3.55;3.00;;;;;;;-148.56;100.00;61375.16;5028556;28;20037;-27
2022/08/26 02:50:21;;;;;;;4.03;3.08;;;;;;;-148.56;100.00;61375.16;5031004;28;20033;-26
2022/08/26 02:53:45;;;;;;;4.75;3.30;;;;;;;-148.56;100.00;61375.16;5032402;28;20057;-27
2022/08/26 02:57:09;;;;;;;4.72;3.30;;;;;;;-148.56;100.00;61375.16;5031737;28;20032;-27
2022/08/26 03:00:35;;;;;;;10.27;3.50;;;;;;;-148.56;100.00;61375.16;5030258;28;20040;-26
2022/08/26 03:03:59;;;;;;;6.70;3.45;;;;;;;-148.56;100.00;61375.16;5033036;28;20083;-27
2022/08/26 03:07:23;;;;;;;4.85;3.30;;;;;;;-148.56;100.00;61375.16;5027847;28;20068;-27
2022/08/26 03:10:47;;;;;;;3.80;3.22;;;;;;;-148.56;100.00;61375.16;5031394;28;20711;-27
2022/08/26 03:14:12;;;;;;;5.30;3.40;;;;;;;-148.56;100.00;61375.16;5029257;28;20036;-27
2022/08/26 03:17:36;;;;;;;4.10;3.10;;;;;;;-148.56;100.00;61375.16;5030990;28;20022;-27
2022/08/26 03:21:07;;;;;;;6.30;3.33;;;;;;;-148.56;100.00;61375.16;5029843;28;21258;-27
2022/08/26 03:24:31;;;;;;;6.20;3.53;;;;;;;-148.56;100.00;61375.16;5031740;28;20028;-26
2022/08/26 03:27:55;;;;;;;3.70;3.10;;;;;;;-148.56;100.00;61375.16;5031026;28;20040;-29
2022/08/26 03:31:19;;;;;;;4.18;3.25;;;;;;;-148.56;100.00;61375.16;5029021;28;20439;-27
2022/08/26 03:34:43;;;;;;;6.68;3.42;;;;;;;-148.56;100.00;61375.16;5031130;28;20023;-26
2022/08/26 03:38:07;;;;;;;4.32;3.40;;;;;;;-148.56;100.00;61375.16;5031010;28;20522;-27
2022/08/26 03:41:32;;;;;;;3.75;3.00;;;;;;;-148.56;100.00;61375.16;5028493;28;20021;-26
2022/08/26 03:44:56;;;;;;;3.95;3.40;;;;;;;-148.56;100.00;61375.16;5029661;28;20032;-27
2022/08/26 03:48:20;;;;;;;4.03;3.40;;;;;;;-148.56;100.00;61375.16;5030883;28;20033;-27
2022/08/26 03:51:44;;;;;;;4.90;3.53;;;;;;;-148.56;100.00;61375.16;5028050;28;20056;-27
2022/08/26 03:55:08;;;;;;;4.55;3.50;;;;;;;-148.56;100.00;61375.16;5028506;28;20102;-29
2022/08/26 03:58:32;;;;;;;5.70;3.40;;;;;;;-148.56;100.00;61375.16;5031561;28;20036;-30
2022/08/26 04:01:56;;;;;;;3.47;3.00;;;;;;;-148.56;100.00;61375.16;5029135;28;20033;-30
2022/08/26 04:05:21;;;;;;;4.28;3.38;;;;;;;-148.56;100.00;61375.16;5028966;28;20037;-26
2022/08/26 04:08:45;;;;;;;3.92;3.30;;;;;;;-148.56;100.00;61375.16;5026260;28;20040;-27
2022/08/26 04:12:13;;;;;;;4.90;3.30;;;;;;;-148.56;100.00;61375.16;5028962;28;20032;-26
2022/08/26 04:15:38;;;;;;;5.03;3.55;;;;;;;-148.56;100.00;61375.16;5023405;28;20022;-27
2022/08/26 04:19:02;;;;;;;5.53;3.60;;;;;;;-148.56;100.00;61375.16;5030100;28;20041;-27
2022/08/26 04:22:25;;;;;;;4.25;3.47;;;;;;;-148.56;100.00;61375.16;5023024;28;20036;-26
2022/08/26 04:25:50;;;;;;;13.27;3.22;;;;;;;-148.56;100.00;61375.16;5025101;28;20425;-27
2022/08/26 04:29:14;;;;;;;5.57;3.35;;;;;;;-148.56;100.00;61375.16;5028115;28;20025;-27
2022/08/26 04:32:38;;;;;;;4.60;3.38;;;;;;;-148.56;100.00;61375.16;5031078;28;20029;-28
2022/08/26 04:36:04;;;;;;;6.00;3.75;;;;;;;-148.56;100.00;61375.16;5022921;28;20170;-26
2022/08/26 04:39:28;;;;;;;7.43;3.67;;;;;;;-148.56;100.00;61375.16;5028361;28;20036;-27
2022/08/26 04:42:52;;;;;;;4.57;3.42;;;;;;;-148.56;100.00;61375.16;5027173;28;20766;-27
2022/08/26 04:46:16;;;;;;;4.00;3.42;;;;;;;-148.56;100.00;61375.16;5029999;28;20029;-27
2022/08/26 04:49:40;;;;;;;5.82;3.22;;;;;;;-148.56;100.00;61375.16;5029900;28;20037;-27
2022/08/26 04:53:04;;;;;;;6.75;3.65;;;;;;;-148.56;100.00;61375.16;5027989;28;20079;-27
2022/08/26 04:56:29;;;;;;;3.70;3.28;;;;;;;-148.56;100.00;61375.16;5025467;28;20060;-27
2022/08/26 04:59:53;;;;;;;5.70;3.75;;;;;;;-148.56;100.00;61375.16;5026293;28;20237;-27
2022/08/26 05:03:17;;;;;;;5.25;3.50;;;;;;;-148.56;100.00;61375.16;5028885;28;20559;-27
2022/08/26 05:06:41;;;;;;;3.97;3.55;;;;;;;-148.56;100.00;61375.16;5028661;28;20395;-27
2022/08/26 05:10:05;;;;;;;3.90;3.45;;;;;;;-148.56;100.00;61375.16;5025344;28;20033;-27
2022/08/26 05:13:29;;;;;;;6.95;3.42;;;;;;;-148.56;100.00;61375.16;5026111;28;20536;-27
2022/08/26 05:16:54;;;;;;;3.70;3.20;;;;;;;-148.56;100.00;61375.16;5025139;28;20033;-26
2022/08/26 05:20:18;;;;;;;7.07;3.38;;;;;;;-148.56;100.00;61375.16;5025954;28;20041;-26
2022/08/26 05:23:42;;;;;;;8.40;3.70;;;;;;;-148.56;100.00;61375.16;5023117;28;20098;-27
2022/08/26 05:27:06;;;;;;;3.95;3.40;;;;;;;-148.56;100.00;61375.16;5024461;28;20060;-27
2022/08/26 05:30:30;;;;;;;5.20;3.28;;;;;;;-148.56;100.00;61375.16;5025001;28;20033;-26
2022/08/26 05:33:55;;;;;;;4.53;3.60;;;;;;;-148.56;100.00;61375.16;5025966;28;20422;-27
2022/08/26 05:37:20;;;;;;;4.72;3.25;;;;;;;-148.56;100.00;61375.16;5024675;28;20659;-27
2022/08/26 05:40:48;;;;;;;4.10;3.17;;;;;;;-148.56;100.00;61375.16;5026146;28;20425;-27
2022/08/26 05:44:13;;;;;;;6.57;4.00;;;;;;;-148.56;100.00;61375.16;5029781;28;20172;-28
2022/08/26 05:47:37;;;;;;;4.70;3.53;;;;;;;-148.56;100.00;61375.16;5027947;28;20033;-27
2022/08/26 05:51:02;;;;;;;7.43;3.83;;;;;;;-148.56;100.00;61375.16;5025084;28;20061;-27
2022/08/26 05:54:26;;;;;;;6.18;3.90;;;;;;;-148.56;100.00;61375.16;5025622;28;20121;-28
2022/08/26 05:57:50;;;;;;;10.00;3.88;;;;;;;-148.56;100.00;61375.16;5026254;28;20022;-27
2022/08/26 06:01:19;;;;;;;8.10;3.63;;;;;;;-148.56;100.00;61375.16;5024657;28;20029;-28
2022/08/26 06:04:43;;;;;;;8.02;3.92;;;;;;;-148.56;100.00;61375.16;5030278;28;20033;-27
2022/08/26 06:08:12;;;;;;;9.85;4.07;;;;;;;-148.56;100.00;61375.16;5031644;28;20036;-26
2022/08/26 06:11:49;;;;;;;14.38;4.03;;;;;;;-148.56;100.00;61375.16;5033048;28;20033;-26
2022/08/26 06:15:13;;;;;;;11.15;3.90;;;;;;;-148.56;100.00;61375.16;5028581;28;20068;-28
2022/08/26 06:18:38;;;;;;;14.27;4.15;;;;;;;-148.56;100.00;61375.16;5027888;28;20104;-27
2022/08/26 06:26:04;;;;;;;15.45;3.88;;;;;;;-148.56;100.00;61375.16;5023217;28;20326;-29
2022/08/26 06:29:29;;;;;;;15.15;3.95;;;;;;;-148.56;100.00;61375.16;5033751;28;20052;-29
2022/08/26 06:32:53;;;;;;;13.70;3.90;;;;;;;-148.56;100.00;61375.16;5029228;28;20033;-27
2022/08/26 06:36:18;;;;;;;12.88;4.03;;;;;;;-148.56;100.00;61375.16;5028599;28;20061;-29
2022/08/26 06:39:43;;;;;;;11.48;4.70;;;;;;;-148.56;100.00;61375.16;5025912;28;20110;-27
2022/08/26 06:43:07;;;;;;;13.98;3.92;;;;;;;-148.56;100.00;61375.16;5024772;28;20025;-28
2022/08/26 06:46:32;;;;;;;10.48;4.07;;;;;;;-148.56;100.00;61375.16;5026286;28;20029;-27
2022/08/26 06:49:56;;;;;;;17.73;3.97;;;;;;;-148.56;100.00;61375.16;5026804;28;20420;-27
2022/08/26 06:53:20;;;;;;;19.52;4.47;;;;;;;-148.56;100.00;61375.16;5029739;28;20041;-27
2022/08/26 06:56:44;;;;;;;15.73;4.68;;;;;;;-148.56;100.00;61375.16;5025257;28;20110;-27
2022/08/26 07:00:11;;;;;;;19.73;4.10;;;;;;;-148.56;100.00;61375.16;5024957;28;20032;-27
2022/08/26 07:03:35;;;;;;;14.82;4.35;;;;;;;-148.56;100.00;61375.16;5029266;28;20037;-27
2022/08/26 07:07:00;;;;;;;22.58;4.10;;;;;;;-148.56;100.00;61375.16;5025329;28;20032;-27
2022/08/26 07:10:24;;;;;;;15.48;4.40;;;;;;;-148.56;100.00;61375.16;5024438;28;20898;-27
2022/08/26 07:13:48;;;;;;;21.30;4.43;;;;;;;-148.56;100.00;61375.16;5027729;28;20144;-27
2022/08/26 07:17:13;;;;;;;17.50;4.65;;;;;;;-148.56;100.00;61375.16;5023700;28;20024;-28
2022/08/26 07:20:39;;;;;;;21.05;4.60;;;;;;;-148.56;100.00;61375.16;5028601;28;20113;-28
2022/08/26 07:24:03;;;;;;;18.75;4.55;;;;;;;-148.56;100.00;61375.16;5025574;28;20033;-27
2022/08/26 07:27:27;;;;;;;13.27;4.10;;;;;;;-148.56;100.00;61375.16;5025648;28;20102;-27
2022/08/26 07:30:53;;;;;;;9.75;4.25;;;;;;;-148.56;100.00;61375.16;5026782;28;20064;-26
2022/08/26 07:34:17;;;;;;;11.27;4.03;;;;;;;-148.56;100.00;61375.16;5025549;28;20397;-28
2022/08/26 07:37:41;;;;;;;12.27;3.80;;;;;;;-148.56;100.00;61375.16;5029329;28;20149;-27
2022/08/26 07:41:05;;;;;;;9.75;3.95;;;;;;;-148.56;100.00;61375.16;5024296;28;20036;-27
2022/08/26 07:44:29;;;;;;;14.32;4.60;;;;;;;-148.56;100.00;61375.16;5028700;28;20021;-27
2022/08/26 07:47:53;;;;;;;21.35;4.57;;;;;;;-148.56;100.00;61375.16;5023552;28;20707;-27
2022/08/26 07:51:18;;;;;;;17.17;4.57;;;;;;;-148.56;100.00;61375.16;5026432;28;20032;-27
2022/08/26 07:54:43;;;;;;;12.20;4.03;;;;;;;-148.56;100.00;61375.16;5025744;28;20052;-27
2022/08/26 07:58:07;;;;;;;12.52;3.80;;;;;;;-148.56;100.00;61375.16;5025760;28;20138;-27
2022/08/26 08:01:31;;;;;;;11.55;3.97;;;;;;;-148.56;100.00;61375.16;5024955;28;20029;-26
2022/08/26 08:04:56;;;;;;;16.15;4.40;;;;;;;-148.56;100.00;61375.16;5025710;28;20047;-26
2022/08/26 08:08:20;;;;;;;18.25;4.30;;;;;;;-148.56;100.00;61375.16;5029335;28;20060;-28
2022/08/26 08:11:44;;;;;;;14.23;4.20;;;;;;;-148.56;100.00;61375.16;5027490;28;20021;-28
2022/08/26 08:15:08;;;;;;;13.35;4.18;;;;;;;-148.56;100.00;61375.16;5026397;28;20029;-28
2022/08/26 08:18:32;;;;;;;11.75;4.03;;;;;;;-148.56;100.00;61375.16;5025513;28;20060;-27
2022/08/26 08:21:56;;;;;;;17.08;4.43;;;;;;;-148.56;100.00;61375.16;5024349;28;20417;-27
2022/08/26 08:25:20;;;;;;;27.00;5.15;;;;;;;-148.56;100.00;61375.16;5027076;28;20028;-28
2022/08/26 08:28:45;;;;;;;16.98;5.07;;;;;;;-148.56;100.00;61375.16;5026883;28;20024;-27
2022/08/26 08:32:15;;;;;;;21.67;5.00;;;;;;;-148.56;100.00;61375.16;5021616;28;20032;-27
2022/08/26 08:35:41;;;;;;;21.23;4.70;;;;;;;-148.56;100.00;61375.16;4959493;28;20051;-56
2022/08/26 08:39:05;;;;;;;188.00;20.90;;;;;;;-148.56;100.00;61375.16;4960001;28;20734;-54
2022/08/26 08:42:37;;;;;;;59.72;9.90;;;;;;;-148.56;100.00;61375.16;4960205;28;20038;-53
2022/08/26 08:46:13;;;;;;;23.63;6.45;;;;;;;-148.56;100.00;61375.16;4958649;28;20406;-53
2022/08/26 08:49:39;;;;;;;28.38;6.30;;;;;;;-148.56;100.00;61375.16;4951842;28;20018;-55
2022/08/26 08:53:16;;;;;;;34.13;6.70;;;;;;;-148.56;100.00;61375.16;4957812;28;20042;-56
2022/08/26 08:57:16;;;;;;;18.13;5.15;;;;;;;-148.56;100.00;61375.16;4958765;28;21924;-55
2022/08/26 09:00:55;;;;;;;25.70;6.07;;;;;;;-148.56;100.00;61375.16;4960058;28;20028;-53
2022/08/26 09:04:34;;;;;;;24.50;5.95;;;;;;;-148.56;100.00;61375.16;4947549;28;20014;-52
2022/08/26 09:08:02;;;;;;;21.92;5.07;;;;;;;-148.56;100.00;61375.16;4960033;28;20030;-54
2022/08/26 09:11:29;;;;;;;15.95;5.13;;;;;;;-148.56;100.00;61375.16;4953273;28;20031;-55
2022/08/26 09:14:56;;;;;;;24.38;5.10;;;;;;;-148.56;100.00;61375.16;4958811;28;20832;-54
2022/08/26 09:18:48;;;;;;;16.27;4.60;;;;;;;-148.56;100.00;61375.16;4958149;28;20039;-52
2022/08/26 09:22:25;;;;;;;21.95;4.95;;;;;;;-148.56;100.00;61375.16;4958107;28;20806;-55
2022/08/26 09:25:51;;;;;;;13.10;4.82;;;;;;;-148.56;100.00;61375.16;4960720;28;20038;-53
2022/08/26 09:29:19;;;;;;;17.58;4.85;;;;;;;-148.56;100.00;61375.16;4959940;28;20118;-53
2022/08/26 09:32:43;;;;;;;17.13;5.18;;;;;;;-148.56;100.00;61375.16;4959842;28;20035;-54
2022/08/26 09:36:37;;;;;;;15.32;4.93;;;;;;;-148.56;100.00;61375.16;4982655;28;20038;-54
2022/08/26 09:40:21;;;;;;;14.48;4.28;;;;;;;-148.56;100.00;61375.16;4983141;28;20037;-51
2022/08/26 09:44:03;;;;;;;12.02;4.00;;;;;;;-148.56;100.00;61375.16;5002981;28;20024;-54
2022/08/26 09:47:36;;;;;;;13.25;4.65;;;;;;;-148.56;100.00;61375.16;4981652;28;20216;-56
2022/08/26 09:51:34;;;;;;;13.00;3.95;;;;;;;-148.56;100.00;61375.16;4982527;28;20148;-55
2022/08/26 09:55:00;;;;;;;13.07;4.20;;;;;;;-148.56;100.00;61375.16;4992160;28;20696;-56
2022/08/26 09:58:35;;;;;;;8.55;3.72;;;;;;;-148.56;100.00;61375.16;4972217;28;20040;-54
2022/08/26 10:02:15;;;;;;;6.93;3.38;;;;;;;-148.56;100.00;61375.16;4974863;28;20619;-53
2022/08/26 10:05:53;;;;;;;8.77;3.53;;;;;;;-148.56;100.00;61375.16;4995173;28;20021;-54
2022/08/26 10:09:18;;;;;;;10.38;3.50;;;;;;;-148.56;100.00;61375.16;4995947;28;20036;-56
2022/08/26 10:12:55;;;;;;;6.95;3.15;;;;;;;-148.56;100.00;61375.16;4985683;28;20040;-56
2022/08/26 10:16:19;;;;;;;7.05;3.20;;;;;;;-148.56;100.00;61375.16;4981003;28;20030;-53
2022/08/26 10:19:56;;;;;;;6.47;3.08;;;;;;;-148.56;100.00;61375.16;4979098;28;20037;-53
2022/08/26 10:23:43;;;;;;;5.18;2.80;;;;;;;-148.56;100.00;61375.16;4976981;28;20029;-55
2022/08/26 10:27:15;;;;;;;6.18;3.03;;;;;;;-148.56;100.00;61375.16;5006013;28;20021;-52
2022/08/26 10:30:50;;;;;;;6.38;2.95;;;;;;;-148.56;100.00;61375.16;4979246;28;20025;-56
2022/08/26 10:34:14;;;;;;;9.30;3.30;;;;;;;-148.56;100.00;61375.16;4976165;28;20041;-55
2022/08/26 10:37:45;;;;;;;7.40;3.05;;;;;;;-148.56;100.00;61375.16;4997824;28;20030;-55
2022/08/26 10:41:25;;;;;;;5.97;2.88;;;;;;;-148.56;100.00;61375.16;4990109;28;20104;-54
2022/08/26 10:44:57;;;;;;;11.98;3.42;;;;;;;-148.56;100.00;61375.16;4975011;28;20048;-54
2022/08/26 10:48:38;;;;;;;;;;;;;;;-148.56;100.00;61375.16;4987738;28;20029;-56
2022/08/26 10:52:12;;;;;;;11.10;3.80;;;;;;;-148.56;100.00;61375.16;4983847;28;20732;-58
2022/08/26 10:55:40;;;;;;;9.30;3.70;;;;;;;-148.56;100.00;61375.16;4973824;28;20924;-57
2022/08/26 10:59:13;;;;;;;9.93;3.80;;;;;;;-148.56;100.00;61375.16;4992182;28;21171;-52
2022/08/26 11:02:41;;;;;;;11.70;3.88;;;;;;;-148.56;100.00;61375.16;4992968;28;20041;-56
2022/08/26 11:06:18;;;;;;;10.32;4.28;;;;;;;-148.56;100.00;61375.16;4964000;28;20053;-55
2022/08/26 11:09:45;;;;;;;10.57;4.22;;;;;;;-148.56;100.00;61375.16;4983598;28;20041;-55
2022/08/26 11:13:56;;;;;;;7.80;4.40;;;;;;;-148.56;100.00;61375.16;4989359;28;20255;-56
2022/08/26 11:17:45;;;;;;;9.40;4.53;;;;;;;-148.56;100.00;61375.16;4979318;28;21271;-57
2022/08/26 11:21:40;;;;;;;8.85;4.40;;;;;;;-148.56;100.00;61375.16;4992226;28;20092;-56
2022/08/26 11:25:05;;;;;;;13.93;4.88;;;;;;;-148.56;100.00;61375.16;4995972;28;20610;-57
2022/08/26 11:28:40;;;;;;;11.23;4.88;;;;;;;-148.56;100.00;61375.16;4994094;28;20575;-57
2022/08/26 11:32:22;;;;;;;12.05;4.30;;;;;;;-148.56;100.00;61375.16;4994772;28;20716;-58
2022/08/26 11:35:55;;;;;;;12.45;4.47;;;;;;;-148.56;100.00;61375.16;4992067;28;20720;-56
2022/08/26 11:39:28;;;;;;;11.75;5.00;;;;;;;-148.56;100.00;61375.16;4968555;28;20566;-57
2022/08/26 11:42:54;;;;;;;14.40;4.45;;;;;;;-148.56;100.00;61375.16;4988035;28;20068;-56
2022/08/26 11:46:25;;;;;;;11.23;4.50;;;;;;;-148.56;100.00;61375.16;4984707;28;20029;-56
2022/08/26 11:49:48;;;;;;;9.88;4.50;;;;;;;-148.56;100.00;61375.16;5001631;28;20103;-55
2022/08/26 11:53:17;;;;;;;11.27;4.30;;;;;;;-148.56;100.00;61375.16;4976088;28;20028;-56
2022/08/26 11:56:41;;;;;;;11.73;4.38;;;;;;;-148.56;100.00;61375.16;5002760;28;20034;-58
2022/08/26 12:00:08;;;;;;;13.45;3.80;;;;;;;-148.56;100.00;61375.16;4989981;28;20044;-57
2022/08/26 12:03:35;;;;;;;12.02;4.07;;;;;;;-148.56;100.00;61375.16;4998941;28;20028;-58
2022/08/26 12:06:59;;;;;;;12.38;4.13;;;;;;;-148.56;100.00;61375.16;4998906;28;20108;-57
2022/08/26 12:10:33;;;;;;;12.82;4.00;;;;;;;-148.56;100.00;61375.16;4999188;28;20033;-54
2022/08/26 12:13:57;;;;;;;10.70;4.45;;;;;;;-148.56;100.00;61375.16;4996167;28;20033;-54
2022/08/26 12:17:25;;;;;;;6.65;4.20;;;;;;;-148.56;100.00;61375.16;4988964;28;20032;-57
2022/08/26 12:20:53;;;;;;;9.02;4.45;;;;;;;-148.56;100.00;61375.16;4982640;28;20025;-57
2022/08/26 12:24:19;;;;;;;8.18;4.15;;;;;;;-148.56;100.00;61375.16;4978276;28;20108;-57
2022/08/26 12:27:43;;;;;;;8.05;3.97;;;;;;;-148.56;100.00;61375.16;4997462;28;20561;-58
2022/08/26 12:31:12;;;;;;;7.88;4.10;;;;;;;-148.56;100.00;61375.16;5002561;28;20029;-56
2022/08/26 12:34:35;;;;;;;6.63;3.97;;;;;;;-148.56;100.00;61375.16;4982934;28;20538;-55
2022/08/26 12:38:00;;;;;;;6.63;3.80;;;;;;;-148.56;100.00;61375.16;4974039;28;20037;-58
2022/08/26 12:41:38;;;;;;;6.25;3.80;;;;;;;-148.56;100.00;61375.16;4975817;28;20113;-56
2022/08/26 12:45:03;;;;;;;8.38;3.80;;;;;;;-148.56;100.00;61375.16;4979479;28;20025;-55
2022/08/26 12:48:27;;;;;;;8.73;3.97;;;;;;;-148.56;100.00;61375.16;4998568;28;20879;-56
2022/08/26 12:51:50;;;;;;;8.93;4.07;;;;;;;-148.56;100.00;61375.16;5000277;28;20025;-56
2022/08/26 12:55:21;;;;;;;8.70;4.35;;;;;;;-148.56;100.00;61375.16;4998674;28;20065;-55
2022/08/26 12:58:58;;;;;;;7.85;4.22;;;;;;;-148.56;100.00;61375.16;4994568;28;20022;-57
2022/08/26 13:02:34;;;;;;;5.22;3.78;;;;;;;-148.56;100.00;61375.16;4965644;28;20538;-57
2022/08/26 13:06:17;;;;;;;10.00;5.03;;;;;;;-148.56;100.00;61375.16;5000285;28;20021;-54
2022/08/26 13:09:45;;;;;;;8.98;4.95;;;;;;;-148.56;100.00;61375.16;4997209;28;20598;-54
2022/08/26 13:13:08;;;;;;;9.32;4.70;;;;;;;-148.56;100.00;61375.16;4995923;28;20267;-54
2022/08/26 13:16:32;;;;;;;6.90;4.40;;;;;;;-148.56;100.00;61375.16;4978206;28;20030;-55
2022/08/26 13:19:58;;;;;;;8.32;4.40;;;;;;;-148.56;100.00;61375.16;5002969;28;20041;-54
2022/08/26 13:23:22;;;;;;;8.60;4.28;;;;;;;-148.56;100.00;61375.16;4993361;28;20033;-56
2022/08/26 13:26:50;;;;;;;7.50;4.75;;;;;;;-148.56;100.00;61375.16;4964736;28;20558;-57
2022/08/26 13:30:14;;;;;;;7.85;4.00;;;;;;;-148.56;100.00;61375.16;4979295;28;20459;-56
2022/08/26 13:33:38;;;;;;;6.80;4.47;;;;;;;-148.56;100.00;61375.16;5003528;28;20488;-55
2022/08/26 13:37:03;;;;;;;6.68;4.22;;;;;;;-148.56;100.00;61375.16;5004553;28;20038;-54
2022/08/26 13:40:27;;;;;;;8.00;4.55;;;;;;;-148.56;100.00;61375.16;4986294;28;20026;-55
2022/08/26 13:43:51;;;;;;;9.15;4.22;;;;;;;-148.56;100.00;61375.16;5013294;28;20029;-54
2022/08/26 13:47:15;;;;;;;6.88;4.15;;;;;;;-148.56;100.00;61375.16;5006575;28;20025;-55
2022/08/26 13:50:39;;;;;;;7.57;3.97;;;;;;;-148.56;100.00;61375.16;5004334;28;20111;-56
2022/08/26 13:54:03;;;;;;;9.30;4.28;;;;;;;-148.56;100.00;61375.16;4984608;28;20731;-54
2022/08/26 13:57:28;;;;;;;6.95;4.53;;;;;;;-148.56;100.00;61375.16;5004156;28;20042;-55
2022/08/26 14:00:53;;;;;;;6.65;3.92;;;;;;;-148.56;100.00;61375.16;4994121;28;20029;-55
2022/08/26 14:04:17;;;;;;;6.15;4.35;;;;;;;-148.56;100.00;61375.16;5005175;28;20595;-55
2022/08/26 14:07:40;;;;;;;6.18;4.07;;;;;;;-148.56;100.00;61375.16;5006840;28;20065;-56
2022/08/26 14:11:05;;;;;;;8.93;3.75;;;;;;;-148.56;100.00;61375.16;5004187;28;20582;-57
2022/08/26 14:14:29;;;;;;;7.22;4.15;;;;;;;-148.56;100.00;61375.16;4997541;28;20029;-56
2022/08/26 14:17:52;;;;;;;6.07;3.83;;;;;;;-148.56;100.00;61375.16;5005141;28;20037;-55
2022/08/26 14:21:23;;;;;;;6.82;3.80;;;;;;;-148.56;100.00;61375.16;4985632;28;20033;-57
2022/08/26 14:24:47;;;;;;;4.55;3.90;;;;;;;-148.56;100.00;61375.16;4996952;28;20105;-54
2022/08/26 14:28:11;;;;;;;8.85;3.70;;;;;;;-148.56;100.00;61375.16;5004183;28;20042;-58
2022/08/26 14:31:36;;;;;;;5.45;3.80;;;;;;;-148.56;100.00;61375.16;5007574;28;20056;-57
2022/08/26 14:35:01;;;;;;;7.32;3.70;;;;;;;-148.56;100.00;61375.16;4986037;28;20037;-55
2022/08/26 14:38:25;;;;;;;6.18;3.65;;;;;;;-148.56;100.00;61375.16;4997462;28;20033;-55
2022/08/26 14:41:50;;;;;;;4.70;3.50;;;;;;;-148.56;100.00;61375.16;5002948;28;20026;-56
2022/08/26 14:45:16;;;;;;;4.70;3.60;;;;;;;-148.56;100.00;61375.16;4988044;28;20887;-56
2022/08/26 14:48:41;;;;;;;7.85;3.53;;;;;;;-148.56;100.00;61375.16;4987562;28;20044;-54
2022/08/26 14:52:05;;;;;;;5.22;3.70;;;;;;;-148.56;100.00;61375.16;5008453;28;20033;-55
2022/08/26 14:55:29;;;;;;;5.00;3.38;;;;;;;-148.56;100.00;61375.16;5006541;28;20061;-56
2022/08/26 14:58:53;;;;;;;5.10;3.80;;;;;;;-148.56;100.00;61375.16;4989606;28;20033;-54
2022/08/26 15:02:17;;;;;;;4.43;3.28;;;;;;;-148.56;100.00;61375.16;5006854;28;20034;-55
2022/08/26 15:05:44;;;;;;;7.45;3.70;;;;;;;-148.56;100.00;61375.16;5008475;28;20057;-54
2022/08/26 15:09:08;;;;;;;4.70;2.97;;;;;;;-148.56;100.00;61375.16;4997960;28;20036;-55
2022/08/26 15:12:32;;;;;;;4.97;3.38;;;;;;;-148.56;100.00;61375.16;4978071;28;20100;-56
2022/08/26 15:15:56;;;;;;;4.32;3.17;;;;;;;-148.56;100.00;61375.16;4998643;28;20034;-56
2022/08/26 15:19:20;;;;;;;4.22;3.20;;;;;;;-148.56;100.00;61375.16;4998815;28;20064;-55
2022/08/26 15:22:44;;;;;;;3.72;2.90;;;;;;;-148.56;100.00;61375.16;5003933;28;20060;-58
2022/08/26 15:26:08;;;;;;;4.47;3.17;;;;;;;-148.56;100.00;61375.16;4990219;28;20025;-55
2022/08/26 15:29:32;;;;;;;5.47;3.38;;;;;;;-148.56;100.00;61375.16;4987115;28;20122;-57
2022/08/26 15:32:56;;;;;;;4.57;3.33;;;;;;;-148.56;100.00;61375.16;5008202;28;20056;-56
2022/08/26 15:36:20;;;;;;;4.63;3.70;;;;;;;-148.56;100.00;61375.16;5006270;28;20037;-58
2022/08/26 15:39:44;;;;;;;5.00;3.15;;;;;;;-148.56;100.00;61375.16;4994268;28;20040;-55
2022/08/26 15:43:08;;;;;;;3.72;3.00;;;;;;;-148.56;100.00;61375.16;5004493;28;20044;-55